Time;durP1;ratioP1;P1;durP2;ratioP2;P2;SDS_P1;SDS_P2;PMS_P1;PMS_P2;Temp;Humidity;BMP_temperature;BMP_pressure;BME280_temperature;BME280_humidity;BME280_pressure;Samples;Min_cycle;Max_cycle;Signal;HPM_P1;HPM_P2
2023/10/15 00:02:56;;;;;;;10.70;4.82;;;;;;;;;;8330328;28;20053;-95
2023/10/15 00:07:05;;;;;;;13.25;4.85;;;;;;;;;;8328814;28;20045;-88
2023/10/15 00:11:14;;;;;;;12.05;4.45;;;;;;;;;;8332213;28;20052;-88
2023/10/15 00:15:18;;;;;;;11.45;4.70;;;;;;;;;;8330487;28;20065;-95
2023/10/15 00:19:21;;;;;;;9.70;4.25;;;;;;;;;;8331416;28;20076;-88
2023/10/15 00:23:25;;;;;;;16.00;4.30;;;;;;;;;;8331222;28;20488;-93
2023/10/15 00:27:29;;;;;;;11.43;4.38;;;;;;;;;;8326223;28;20137;-95
2023/10/15 00:31:32;;;;;;;17.30;5.00;;;;;;;;;;8328847;28;20515;-91
2023/10/15 00:35:35;;;;;;;15.38;4.65;;;;;;;;;;8316443;28;20057;-89
2023/10/15 00:39:41;;;;;;;13.38;4.40;;;;;;;;;;8329948;28;20037;-94
2023/10/15 00:43:54;;;;;;;12.38;5.57;;;;;;;;;;8335373;28;20049;-86
2023/10/15 00:48:07;;;;;;;15.43;6.22;;;;;;;;;;8325752;28;20045;-89
2023/10/15 00:52:11;;;;;;;21.23;6.65;;;;;;;;;;8320391;28;20054;-89
2023/10/15 00:56:18;;;;;;;20.48;5.88;;;;;;;;;;8326208;28;20054;-88
2023/10/15 01:00:51;;;;;;;16.02;6.10;;;;;;;;;;8334148;28;21558;-95
2023/10/15 01:04:58;;;;;;;19.98;7.80;;;;;;;;;;8334332;28;20480;-90
2023/10/15 01:09:08;;;;;;;17.38;6.60;;;;;;;;;;8332474;28;20033;-91
2023/10/15 01:13:16;;;;;;;21.90;6.57;;;;;;;;;;8327983;28;20094;-91
2023/10/15 01:17:23;;;;;;;15.93;6.15;;;;;;;;;;8333189;28;20051;-93
2023/10/15 01:21:29;;;;;;;20.38;6.38;;;;;;;;;;8339500;28;20045;-86
2023/10/15 01:25:34;;;;;;;15.63;6.05;;;;;;;;;;8338842;28;20033;-87
2023/10/15 01:29:40;;;;;;;21.38;6.82;;;;;;;;;;8337959;28;20068;-85
2023/10/15 01:33:47;;;;;;;23.17;6.70;;;;;;;;;;8351534;28;20042;-93
2023/10/15 01:38:09;;;;;;;25.73;6.82;;;;;;;;;;8338970;28;20156;-86
2023/10/15 01:42:32;;;;;;;21.95;7.18;;;;;;;;;;8338887;28;20065;-91
2023/10/15 01:46:48;;;;;;;21.42;7.05;;;;;;;;;;8339610;28;20097;-94
2023/10/15 01:50:51;;;;;;;19.30;6.88;;;;;;;;;;8342687;28;20057;-89
2023/10/15 01:54:54;;;;;;;19.33;6.53;;;;;;;;;;8340022;28;20037;-89
2023/10/15 01:58:58;;;;;;;21.83;6.32;;;;;;;;;;8343201;28;20041;-93
2023/10/15 02:03:03;;;;;;;20.60;6.20;;;;;;;;;;8343781;28;20073;-91
2023/10/15 02:07:06;;;;;;;15.90;5.70;;;;;;;;;;8342403;28;20528;-86
2023/10/15 02:11:21;;;;;;;23.48;6.88;;;;;;;;;;8333969;28;20082;-94
2023/10/15 02:15:25;;;;;;;21.02;6.45;;;;;;;;;;8332699;28;20592;-92
2023/10/15 02:19:34;;;;;;;18.55;6.03;;;;;;;;;;8337482;28;20041;-93
2023/10/15 02:23:48;;;;;;;23.73;7.00;;;;;;;;;;8335019;28;20041;-91
2023/10/15 02:27:51;;;;;;;13.45;6.28;;;;;;;;;;8332077;28;20053;-85
2023/10/15 02:31:58;;;;;;;23.52;6.55;;;;;;;;;;8330404;28;20041;-93
2023/10/15 02:36:06;;;;;;;17.35;6.15;;;;;;;;;;8337485;28;20045;-89
2023/10/15 02:40:16;;;;;;;21.30;6.38;;;;;;;;;;8343066;28;20049;-89
2023/10/15 02:44:19;;;;;;;16.13;5.78;;;;;;;;;;8345057;28;20045;-85
2023/10/15 02:48:25;;;;;;;12.93;5.97;;;;;;;;;;8344580;28;20484;-90
2023/10/15 02:52:35;;;;;;;26.63;6.85;;;;;;;;;;8340698;28;20053;-93
2023/10/15 02:56:38;;;;;;;15.30;6.05;;;;;;;;;;8331289;28;20128;-89
2023/10/15 03:00:42;;;;;;;25.42;6.90;;;;;;;;;;8333850;28;20125;-85
2023/10/15 03:04:53;;;;;;;16.55;6.60;;;;;;;;;;8328698;28;20061;-92
2023/10/15 03:08:57;;;;;;;31.58;9.30;;;;;;;;;;8327785;28;20476;-94
2023/10/15 03:13:01;;;;;;;40.97;13.15;;;;;;;;;;8330922;28;20099;-86
2023/10/15 03:17:12;;;;;;;28.30;9.40;;;;;;;;;;8331047;28;20091;-89
2023/10/15 03:21:24;;;;;;;22.23;8.50;;;;;;;;;;8327935;28;20067;-91
2023/10/15 03:25:33;;;;;;;25.52;8.20;;;;;;;;;;8330992;28;20038;-87
2023/10/15 03:29:37;;;;;;;19.77;8.30;;;;;;;;;;8335916;28;20060;-93
2023/10/15 03:33:39;;;;;;;21.70;9.27;;;;;;;;;;8331011;28;20410;-93
2023/10/15 03:37:47;;;;;;;23.73;9.38;;;;;;;;;;8332475;28;20371;-94
2023/10/15 03:41:52;;;;;;;18.67;6.55;;;;;;;;;;8335685;28;20045;-86
2023/10/15 03:45:55;;;;;;;19.38;6.30;;;;;;;;;;8333073;28;20044;-89
2023/10/15 03:50:06;;;;;;;22.65;7.82;;;;;;;;;;8334600;28;20065;-92
2023/10/15 03:54:13;;;;;;;17.98;6.97;;;;;;;;;;8335553;28;20052;-85
2023/10/15 03:58:16;;;;;;;22.27;5.88;;;;;;;;;;8330792;28;20033;-92
2023/10/15 04:02:26;;;;;;;17.88;6.22;;;;;;;;;;8330741;28;20091;-91
2023/10/15 04:06:29;;;;;;;21.25;6.10;;;;;;;;;;8330670;28;20065;-89
2023/10/15 04:10:34;;;;;;;16.80;5.30;;;;;;;;;;8343130;28;20073;-90
2023/10/15 04:14:37;;;;;;;20.67;6.25;;;;;;;;;;8328517;28;20527;-93
2023/10/15 04:18:42;;;;;;;25.00;5.78;;;;;;;;;;8326856;28;20038;-85
2023/10/15 04:22:46;;;;;;;12.30;5.13;;;;;;;;;;8331524;28;20049;-92
2023/10/15 04:26:51;;;;;;;13.45;5.35;;;;;;;;;;8330350;28;20471;-89
2023/10/15 04:30:54;;;;;;;18.90;5.43;;;;;;;;;;8328776;28;20171;-88
2023/10/15 04:35:01;;;;;;;22.38;5.82;;;;;;;;;;8326817;28;20579;-91
2023/10/15 04:39:12;;;;;;;15.13;4.63;;;;;;;;;;8330146;28;20473;-93
2023/10/15 04:43:17;;;;;;;22.47;6.47;;;;;;;;;;8329378;28;20042;-93
2023/10/15 04:47:27;;;;;;;26.20;7.07;;;;;;;;;;8338950;28;20144;-86
2023/10/15 04:51:42;;;;;;;15.85;6.90;;;;;;;;;;8350367;28;20041;-93
2023/10/15 04:55:46;;;;;;;15.23;5.47;;;;;;;;;;8334345;28;20385;-85
2023/10/15 04:59:50;;;;;;;18.27;6.20;;;;;;;;;;8331842;28;20055;-92
2023/10/15 05:03:53;;;;;;;25.95;7.57;;;;;;;;;;8332086;28;20073;-88
2023/10/15 05:08:00;;;;;;;13.95;5.80;;;;;;;;;;8326741;28;20037;-85
2023/10/15 05:12:11;;;;;;;16.87;6.67;;;;;;;;;;8328271;28;20485;-89
2023/10/15 05:16:16;;;;;;;19.25;6.72;;;;;;;;;;8327833;28;20302;-91
2023/10/15 05:20:20;;;;;;;17.23;5.85;;;;;;;;;;8329862;28;20045;-93
2023/10/15 05:24:25;;;;;;;19.17;5.88;;;;;;;;;;8324176;28;20049;-92
2023/10/15 05:28:29;;;;;;;23.08;8.07;;;;;;;;;;8326627;28;20041;-94
2023/10/15 05:32:33;;;;;;;20.23;7.72;;;;;;;;;;8325089;28;20050;-85
2023/10/15 05:36:36;;;;;;;19.20;6.10;;;;;;;;;;8327822;28;20037;-90
2023/10/15 05:40:41;;;;;;;17.42;5.95;;;;;;;;;;8326895;28;20120;-91
2023/10/15 05:44:44;;;;;;;17.48;5.85;;;;;;;;;;8330793;28;20125;-90
2023/10/15 05:48:48;;;;;;;19.70;6.20;;;;;;;;;;8333254;28;20119;-93
2023/10/15 05:52:51;;;;;;;21.05;4.90;;;;;;;;;;8347064;28;20054;-93
2023/10/15 05:56:54;;;;;;;18.83;5.88;;;;;;;;;;8334766;28;20489;-89
2023/10/15 06:00:56;;;;;;;24.80;5.80;;;;;;;;;;8333713;28;20055;-86
2023/10/15 06:05:01;;;;;;;12.00;5.00;;;;;;;;;;8333264;28;20049;-91
2023/10/15 06:09:05;;;;;;;14.40;4.93;;;;;;;;;;8334579;28;20556;-88
2023/10/15 06:13:08;;;;;;;16.77;4.75;;;;;;;;;;8335678;28;20041;-92
2023/10/15 06:17:11;;;;;;;11.52;4.53;;;;;;;;;;8334071;28;20643;-86
2023/10/15 06:21:15;;;;;;;15.43;5.00;;;;;;;;;;8327829;28;20132;-88
2023/10/15 06:25:18;;;;;;;12.20;3.92;;;;;;;;;;8330203;28;20045;-87
2023/10/15 06:29:24;;;;;;;14.48;3.60;;;;;;;;;;8365241;28;20029;-87
2023/10/15 06:33:27;;;;;;;7.90;3.10;;;;;;;;;;8334491;28;20112;-87
2023/10/15 06:37:32;;;;;;;16.38;3.58;;;;;;;;;;8336703;28;20056;-95
2023/10/15 06:41:36;;;;;;;9.48;2.92;;;;;;;;;;8335112;28;20064;-85
2023/10/15 06:45:39;;;;;;;12.15;2.58;;;;;;;;;;8339520;28;20045;-86
2023/10/15 06:49:43;;;;;;;8.73;2.78;;;;;;;;;;8342560;28;20524;-89
2023/10/15 06:53:48;;;;;;;6.47;2.05;;;;;;;;;;8331891;28;20063;-89
2023/10/15 06:57:53;;;;;;;6.88;2.25;;;;;;;;;;8336927;28;20049;-94
2023/10/15 07:02:03;;;;;;;7.00;2.40;;;;;;;;;;8326754;28;20058;-91
2023/10/15 07:06:08;;;;;;;;;;;;;;;;;;8344595;28;20045;-95
2023/10/15 07:10:18;;;;;;;5.32;2.20;;;;;;;;;;8350478;28;19928;-92
2023/10/15 07:14:21;;;;;;;9.10;2.10;;;;;;;;;;8304003;28;20069;-92
2023/10/15 07:18:24;;;;;;;9.52;2.40;;;;;;;;;;8322539;28;20132;-86
2023/10/15 07:22:29;;;;;;;9.40;2.33;;;;;;;;;;8339622;28;20045;-95
2023/10/15 07:26:46;;;;;;;6.10;2.20;;;;;;;;;;8335362;28;20491;-95
2023/10/15 07:30:50;;;;;;;5.95;2.25;;;;;;;;;;8332954;28;20041;-91
2023/10/15 07:34:53;;;;;;;8.63;2.25;;;;;;;;;;8334251;28;20050;-90
2023/10/15 07:38:56;;;;;;;9.05;2.13;;;;;;;;;;8332039;28;20045;-95
2023/10/15 07:43:02;;;;;;;4.57;1.98;;;;;;;;;;8339097;28;20045;-92
2023/10/15 07:47:08;;;;;;;6.50;1.83;;;;;;;;;;8338502;28;20049;-91
2023/10/15 07:51:17;;;;;;;8.52;1.80;;;;;;;;;;8333944;28;20087;-90
2023/10/15 07:55:24;;;;;;;8.60;2.05;;;;;;;;;;8323632;28;20048;-90
2023/10/15 07:59:30;;;;;;;7.88;2.15;;;;;;;;;;8329649;28;20548;-96
2023/10/15 08:03:37;;;;;;;7.22;1.67;;;;;;;;;;8327685;28;20083;-94
2023/10/15 08:07:46;;;;;;;4.05;1.77;;;;;;;;;;8321006;28;20049;-92
2023/10/15 08:11:49;;;;;;;9.43;1.77;;;;;;;;;;8331655;28;20072;-91
2023/10/15 08:15:55;;;;;;;3.85;1.75;;;;;;;;;;8342452;28;20041;-88
2023/10/15 08:20:13;;;;;;;9.27;2.00;;;;;;;;;;8335932;28;20080;-96
2023/10/15 08:24:21;;;;;;;5.88;1.88;;;;;;;;;;8328722;28;20042;-95
2023/10/15 08:28:26;;;;;;;6.03;2.33;;;;;;;;;;8330820;28;20045;-95
2023/10/15 08:32:31;;;;;;;8.73;2.67;;;;;;;;;;8317895;28;20072;-94
2023/10/15 08:36:34;;;;;;;6.13;1.95;;;;;;;;;;8325154;28;20046;-94
2023/10/15 08:40:40;;;;;;;10.90;2.25;;;;;;;;;;8332193;28;20052;-90
2023/10/15 08:44:49;;;;;;;11.55;2.47;;;;;;;;;;8329341;28;20113;-90
2023/10/15 08:48:55;;;;;;;6.97;1.80;;;;;;;;;;8340267;28;20049;-91
2023/10/15 08:52:59;;;;;;;8.07;2.10;;;;;;;;;;8333238;28;20105;-90
2023/10/15 08:57:08;;;;;;;10.00;2.50;;;;;;;;;;8339716;28;20072;-89
2023/10/15 09:01:13;;;;;;;7.30;2.13;;;;;;;;;;8333390;28;20069;-90
2023/10/15 09:05:23;;;;;;;8.73;2.13;;;;;;;;;;8311959;28;20050;-89
2023/10/15 09:09:26;;;;;;;4.05;1.67;;;;;;;;;;8332674;28;20794;-87
2023/10/15 09:13:50;;;;;;;5.80;2.00;;;;;;;;;;8337622;28;20053;-89
2023/10/15 09:18:23;;;;;;;6.03;1.88;;;;;;;;;;8297617;28;20034;-88
2023/10/15 09:23:28;;;;;;;6.72;2.10;;;;;;;;;;8336656;28;20049;-87
2023/10/15 09:28:27;;;;;;;7.57;2.22;;;;;;;;;;8363697;28;20071;-89
2023/10/15 09:37:48;;;;;;;7.55;2.97;;;;;;;;;;8187668;23;20092;-95
2023/10/15 09:46:56;;;;;;;5.53;1.60;;;;;;;;;;8305588;28;20088;-88
2023/10/15 10:01:08;;;;;;;5.63;1.83;;;;;;;;;;8318288;28;20049;-89
2023/10/15 10:10:29;;;;;;;5.30;1.80;;;;;;;;;;8164775;29;20126;-95
2023/10/15 10:15:36;;;;;;;4.07;1.67;;;;;;;;;;8196543;29;20060;-91
2023/10/15 10:24:14;;;;;;;7.80;1.90;;;;;;;;;;8180744;29;20539;-90
2023/10/15 10:28:19;;;;;;;6.13;1.90;;;;;;;;;;8177283;29;20070;-90
2023/10/15 10:32:46;;;;;;;4.47;1.75;;;;;;;;;;8209674;28;20062;-90
2023/10/15 10:36:55;;;;;;;7.00;1.90;;;;;;;;;;8191750;29;20052;-91
2023/10/15 10:41:03;;;;;;;6.25;1.95;;;;;;;;;;8207768;28;20053;-93
2023/10/15 10:45:14;;;;;;;8.10;2.03;;;;;;;;;;8301507;28;20046;-87
2023/10/15 10:49:28;;;;;;;4.35;1.77;;;;;;;;;;8318395;28;20056;-93
2023/10/15 10:53:31;;;;;;;6.13;2.00;;;;;;;;;;8299645;28;20042;-93
2023/10/15 10:57:45;;;;;;;9.18;2.08;;;;;;;;;;8296565;28;20050;-88
2023/10/15 11:01:49;;;;;;;3.50;1.70;;;;;;;;;;8304937;28;20109;-88
2023/10/15 11:05:57;;;;;;;4.40;1.60;;;;;;;;;;8304624;28;20046;-87
2023/10/15 11:10:09;;;;;;;7.28;2.22;;;;;;;;;;8295783;28;20046;-87
2023/10/15 11:14:27;;;;;;;5.57;2.33;;;;;;;;;;8304630;28;20530;-88
2023/10/15 11:18:37;;;;;;;7.35;2.45;;;;;;;;;;8282597;28;20054;-87
2023/10/15 11:22:43;;;;;;;8.73;2.13;;;;;;;;;;8288857;28;20420;-90
2023/10/15 11:26:48;;;;;;;6.30;1.90;;;;;;;;;;8244004;28;20065;-86
2023/10/15 11:30:53;;;;;;;9.23;2.83;;;;;;;;;;8299167;28;20073;-87
2023/10/15 11:34:57;;;;;;;6.28;2.45;;;;;;;;;;8311700;28;20096;-90
2023/10/15 11:39:11;;;;;;;12.75;3.08;;;;;;;;;;8315301;28;20050;-87
2023/10/15 11:43:24;;;;;;;11.18;2.20;;;;;;;;;;8329141;28;20447;-86
2023/10/15 11:47:32;;;;;;;5.13;2.13;;;;;;;;;;8301990;28;20916;-87
2023/10/15 11:51:45;;;;;;;5.57;2.30;;;;;;;;;;8297024;28;20049;-88
2023/10/15 11:55:52;;;;;;;10.85;2.95;;;;;;;;;;8297857;28;20099;-89
2023/10/15 12:00:09;;;;;;;11.57;3.53;;;;;;;;;;8304585;28;20050;-87
2023/10/15 12:04:28;;;;;;;7.85;2.22;;;;;;;;;;8299977;28;20054;-87
2023/10/15 12:08:34;;;;;;;6.00;2.10;;;;;;;;;;8297116;28;20034;-87
2023/10/15 12:12:39;;;;;;;11.18;2.40;;;;;;;;;;8322914;28;20053;-90
2023/10/15 12:21:23;;;;;;;9.07;2.83;;;;;;;;;;8294014;28;20069;-94
2023/10/15 12:25:40;;;;;;;10.07;2.67;;;;;;;;;;8316931;28;20161;-92
2023/10/15 12:29:46;;;;;;;;;;;;;;;;;;8270857;28;20030;-89
2023/10/15 12:34:09;;;;;;;4.95;2.10;;;;;;;;;;8322966;28;19912;-88
2023/10/15 12:38:42;;;;;;;5.05;2.10;;;;;;;;;;8325096;28;20128;-88
2023/10/15 12:42:54;;;;;;;5.25;2.00;;;;;;;;;;8334742;28;20072;-89
2023/10/15 12:47:07;;;;;;;5.85;2.22;;;;;;;;;;8304287;28;20045;-86
2023/10/15 12:51:12;;;;;;;2.70;1.60;;;;;;;;;;8316144;28;20041;-87
2023/10/15 12:55:17;;;;;;;5.78;1.77;;;;;;;;;;8293218;28;20125;-86
2023/10/15 12:59:25;;;;;;;4.43;2.13;;;;;;;;;;8306724;28;20042;-94
2023/10/15 13:03:32;;;;;;;4.90;2.13;;;;;;;;;;8320250;28;20057;-88
2023/10/15 13:07:36;;;;;;;7.25;2.17;;;;;;;;;;8306823;28;20504;-91
2023/10/15 13:11:39;;;;;;;5.68;2.05;;;;;;;;;;8297666;28;20155;-91
2023/10/15 13:15:44;;;;;;;6.85;1.70;;;;;;;;;;8306567;28;20049;-90
2023/10/15 13:19:51;;;;;;;3.55;1.80;;;;;;;;;;8304354;28;20449;-89
2023/10/15 13:24:04;;;;;;;7.43;1.85;;;;;;;;;;8309512;28;20046;-91
2023/10/15 13:28:12;;;;;;;5.55;2.45;;;;;;;;;;8294769;28;20050;-91
2023/10/15 13:32:19;;;;;;;5.75;2.13;;;;;;;;;;8310760;28;20430;-89
2023/10/15 13:36:26;;;;;;;4.07;2.50;;;;;;;;;;8297946;28;20099;-91
2023/10/15 13:40:33;;;;;;;2.50;1.55;;;;;;;;;;8313241;28;20057;-92
2023/10/15 13:44:39;;;;;;;3.15;1.77;;;;;;;;;;8294709;28;20046;-92
2023/10/15 13:48:47;;;;;;;2.95;1.70;;;;;;;;;;8285558;28;20051;-91
2023/10/15 13:52:54;;;;;;;2.65;1.30;;;;;;;;;;8288328;28;20628;-94
2023/10/15 13:56:59;;;;;;;2.40;1.52;;;;;;;;;;8289622;28;20046;-95
2023/10/15 14:01:03;;;;;;;3.05;1.50;;;;;;;;;;8298875;28;20049;-93
2023/10/15 14:05:08;;;;;;;4.40;1.92;;;;;;;;;;8299573;28;20137;-95
2023/10/15 14:09:15;;;;;;;6.55;2.97;;;;;;;;;;8296641;28;20077;-92
2023/10/15 14:13:19;;;;;;;7.35;2.90;;;;;;;;;;8290219;28;20257;-91
2023/10/15 14:17:23;;;;;;;4.47;2.38;;;;;;;;;;8302751;28;20056;-94
2023/10/15 14:21:29;;;;;;;5.53;2.53;;;;;;;;;;8286750;28;20046;-91
2023/10/15 14:25:36;;;;;;;6.95;3.08;;;;;;;;;;8304718;28;20485;-93
2023/10/15 14:29:41;;;;;;;4.38;2.63;;;;;;;;;;8298765;28;20451;-94
2023/10/15 14:33:45;;;;;;;6.82;2.95;;;;;;;;;;8310218;28;20069;-93
2023/10/15 14:37:51;;;;;;;4.95;3.03;;;;;;;;;;8317451;28;20058;-96
2023/10/15 14:42:04;;;;;;;10.35;4.32;;;;;;;;;;8300404;28;20139;-92
2023/10/15 14:50:28;;;;;;;10.57;3.85;;;;;;;;;;8303586;28;20398;-91
2023/10/15 14:54:36;;;;;;;8.40;3.75;;;;;;;;;;8318238;28;20052;-93
2023/10/15 14:58:47;;;;;;;11.32;3.70;;;;;;;;;;8294865;28;20042;-92
2023/10/15 15:02:59;;;;;;;8.80;4.10;;;;;;;;;;8303696;28;20052;-94
2023/10/15 15:07:08;;;;;;;11.65;4.70;;;;;;;;;;8313410;28;20049;-96
2023/10/15 15:11:16;;;;;;;7.30;4.07;;;;;;;;;;8303907;28;20134;-93
2023/10/15 15:15:23;;;;;;;11.95;5.45;;;;;;;;;;8309605;28;20045;-90
2023/10/15 15:19:36;;;;;;;11.45;4.70;;;;;;;;;;8320461;28;20060;-94
2023/10/15 15:23:57;;;;;;;11.95;4.10;;;;;;;;;;8367599;23;20069;-95
2023/10/15 15:28:11;;;;;;;8.88;4.15;;;;;;;;;;8326838;28;20048;-92
2023/10/15 15:32:32;;;;;;;7.72;3.38;;;;;;;;;;8325370;28;20482;-94
2023/10/15 15:36:46;;;;;;;8.20;3.47;;;;;;;;;;8332003;28;20045;-93
2023/10/15 15:40:54;;;;;;;6.97;3.17;;;;;;;;;;8326091;28;20050;-92
2023/10/15 15:45:01;;;;;;;8.25;3.10;;;;;;;;;;8334478;28;20168;-92
2023/10/15 15:53:28;;;;;;;5.38;2.40;;;;;;;;;;8322230;28;20056;-90
2023/10/15 15:57:33;;;;;;;5.72;2.55;;;;;;;;;;8302245;28;20072;-93
2023/10/15 16:01:38;;;;;;;8.23;2.83;;;;;;;;;;8324595;28;20066;-89
2023/10/15 16:05:45;;;;;;;6.85;3.10;;;;;;;;;;8332835;28;20449;-88
2023/10/15 16:09:50;;;;;;;13.65;3.20;;;;;;;;;;8321845;28;20620;-89
2023/10/15 16:13:54;;;;;;;31.38;11.98;;;;;;;;;;8327116;28;20128;-91
2023/10/15 16:18:04;;;;;;;46.33;16.90;;;;;;;;;;8323236;28;20464;-89
2023/10/15 16:22:15;;;;;;;42.38;16.55;;;;;;;;;;8330592;28;20061;-86
2023/10/15 16:26:20;;;;;;;8.23;4.45;;;;;;;;;;8336836;28;20061;-88
2023/10/15 16:30:26;;;;;;;9.50;3.85;;;;;;;;;;8322572;28;20054;-90
2023/10/15 16:34:29;;;;;;;9.82;3.80;;;;;;;;;;8318927;28;20459;-87
2023/10/15 16:38:40;;;;;;;57.60;18.13;;;;;;;;;;8319512;28;20079;-89
2023/10/15 16:42:45;;;;;;;76.28;30.05;;;;;;;;;;8342156;28;20046;-86
2023/10/15 16:46:56;;;;;;;46.03;16.73;;;;;;;;;;8333864;28;20050;-87
2023/10/15 16:51:04;;;;;;;20.15;8.98;;;;;;;;;;8322647;28;20072;-89
2023/10/15 16:55:11;;;;;;;29.73;10.88;;;;;;;;;;8321494;28;20050;-87
2023/10/15 16:59:15;;;;;;;26.95;11.85;;;;;;;;;;8326749;28;20045;-87
2023/10/15 17:03:19;;;;;;;16.55;7.50;;;;;;;;;;8320111;28;20123;-87
2023/10/15 17:07:26;;;;;;;17.35;7.15;;;;;;;;;;8327411;28;20049;-87
2023/10/15 17:11:32;;;;;;;18.30;7.07;;;;;;;;;;8320544;28;20409;-91
2023/10/15 17:15:39;;;;;;;16.88;7.68;;;;;;;;;;8316436;28;20046;-87
2023/10/15 17:19:50;;;;;;;18.77;8.45;;;;;;;;;;8331905;28;20057;-88
2023/10/15 17:23:57;;;;;;;15.85;6.22;;;;;;;;;;8308492;28;20057;-87
2023/10/15 17:28:21;;;;;;;16.15;7.60;;;;;;;;;;8323341;28;20045;-88
2023/10/15 17:32:30;;;;;;;22.38;11.60;;;;;;;;;;8323011;28;20080;-93
2023/10/15 17:36:43;;;;;;;32.58;14.80;;;;;;;;;;8329666;28;20046;-87
2023/10/15 17:40:50;;;;;;;29.98;13.57;;;;;;;;;;8327651;28;20057;-90
2023/10/15 17:44:57;;;;;;;21.08;8.68;;;;;;;;;;8317760;28;20077;-88
2023/10/15 17:49:02;;;;;;;16.90;7.53;;;;;;;;;;8322166;28;20045;-87
2023/10/15 17:53:07;;;;;;;17.02;7.75;;;;;;;;;;8333442;28;20129;-91
2023/10/15 17:57:17;;;;;;;14.35;6.45;;;;;;;;;;8324600;28;20045;-90
2023/10/15 18:01:34;;;;;;;18.45;6.57;;;;;;;;;;8331787;28;20056;-88
2023/10/15 18:05:49;;;;;;;;;;;;;;;;;;8313850;28;20118;-88
2023/10/15 18:09:58;;;;;;;18.33;7.22;;;;;;;;;;8335475;28;19941;-87
2023/10/15 18:14:09;;;;;;;20.48;7.65;;;;;;;;;;8300199;28;20060;-88
2023/10/15 18:18:19;;;;;;;18.75;8.20;;;;;;;;;;8332726;28;20474;-88
2023/10/15 18:22:28;;;;;;;13.95;6.45;;;;;;;;;;8351303;28;20046;-88
2023/10/15 18:26:36;;;;;;;14.20;6.45;;;;;;;;;;8344336;28;20072;-88
2023/10/15 18:30:47;;;;;;;13.52;6.28;;;;;;;;;;8332675;28;20058;-89
2023/10/15 18:35:06;;;;;;;14.75;6.35;;;;;;;;;;8335967;28;20137;-88
2023/10/15 18:39:10;;;;;;;13.90;5.88;;;;;;;;;;8336005;28;20049;-90
2023/10/15 18:43:16;;;;;;;13.73;6.07;;;;;;;;;;8343662;28;20409;-86
2023/10/15 18:47:19;;;;;;;15.70;6.47;;;;;;;;;;8332220;28;20037;-87
2023/10/15 18:51:24;;;;;;;16.77;7.05;;;;;;;;;;8318436;28;20088;-91
2023/10/15 18:55:28;;;;;;;14.30;6.53;;;;;;;;;;8327544;28;20542;-88
2023/10/15 18:59:33;;;;;;;18.27;6.65;;;;;;;;;;8326863;28;20477;-92
2023/10/15 19:03:37;;;;;;;16.67;5.95;;;;;;;;;;8329426;28;20124;-89
2023/10/15 19:07:43;;;;;;;12.13;6.07;;;;;;;;;;8313456;28;20056;-87
2023/10/15 19:11:47;;;;;;;18.70;5.60;;;;;;;;;;8335385;28;20041;-91
2023/10/15 19:15:59;;;;;;;12.55;5.00;;;;;;;;;;8325563;28;20065;-88
2023/10/15 19:20:10;;;;;;;13.25;5.03;;;;;;;;;;8324291;28;20041;-94
2023/10/15 19:24:15;;;;;;;14.23;5.90;;;;;;;;;;8333840;28;20049;-89
2023/10/15 19:28:19;;;;;;;10.20;4.78;;;;;;;;;;8325536;28;20049;-94
2023/10/15 19:32:23;;;;;;;10.77;4.30;;;;;;;;;;8322515;28;20049;-89
2023/10/15 19:36:26;;;;;;;14.52;4.95;;;;;;;;;;8326165;28;20073;-90
2023/10/15 19:40:33;;;;;;;12.88;5.25;;;;;;;;;;8316298;28;20122;-87
2023/10/15 19:44:38;;;;;;;9.13;4.45;;;;;;;;;;8322522;28;20065;-92
2023/10/15 19:48:42;;;;;;;11.88;4.50;;;;;;;;;;8324159;28;20072;-88
2023/10/15 19:52:46;;;;;;;14.57;5.03;;;;;;;;;;8331139;28;20049;-90
2023/10/15 19:56:51;;;;;;;9.98;4.47;;;;;;;;;;8323675;28;20069;-88
2023/10/15 20:00:58;;;;;;;16.58;4.47;;;;;;;;;;8330593;28;20056;-93
2023/10/15 20:05:03;;;;;;;10.20;4.38;;;;;;;;;;8299594;28;20065;-88
2023/10/15 20:09:10;;;;;;;10.45;4.28;;;;;;;;;;8325080;28;20056;-88
2023/10/15 20:13:15;;;;;;;9.80;4.32;;;;;;;;;;8330714;28;20037;-89
2023/10/15 20:17:29;;;;;;;11.13;5.95;;;;;;;;;;8326491;28;20034;-90
2023/10/15 20:21:34;;;;;;;11.18;5.18;;;;;;;;;;8321960;28;20429;-92
2023/10/15 20:25:37;;;;;;;15.43;4.75;;;;;;;;;;8322848;28;20126;-93
2023/10/15 20:29:46;;;;;;;13.98;4.63;;;;;;;;;;8323695;28;20041;-93
2023/10/15 20:33:49;;;;;;;11.70;4.68;;;;;;;;;;8330104;28;20508;-91
2023/10/15 20:37:54;;;;;;;10.98;5.15;;;;;;;;;;8330152;28;20473;-92
2023/10/15 20:41:57;;;;;;;11.85;4.53;;;;;;;;;;8330309;28;20124;-91
2023/10/15 20:46:02;;;;;;;10.70;5.07;;;;;;;;;;8330707;28;20069;-91
2023/10/15 20:50:08;;;;;;;10.60;4.35;;;;;;;;;;8320316;28;20373;-91
2023/10/15 20:54:11;;;;;;;11.20;4.20;;;;;;;;;;8332980;28;20045;-91
2023/10/15 20:58:14;;;;;;;9.93;4.55;;;;;;;;;;8318385;28;20041;-93
2023/10/15 21:02:19;;;;;;;8.75;3.80;;;;;;;;;;8329893;28;20132;-89
2023/10/15 21:06:23;;;;;;;11.32;4.00;;;;;;;;;;8320346;28;20046;-89
2023/10/15 21:10:27;;;;;;;11.68;4.82;;;;;;;;;;8329846;28;20053;-88
2023/10/15 21:14:30;;;;;;;8.55;4.30;;;;;;;;;;8332045;28;20046;-88
2023/10/15 21:18:37;;;;;;;9.65;3.78;;;;;;;;;;8336389;28;20451;-90
2023/10/15 21:22:41;;;;;;;8.73;3.97;;;;;;;;;;8336670;28;20045;-93
2023/10/15 21:26:44;;;;;;;10.93;4.07;;;;;;;;;;8336360;28;20477;-92
2023/10/15 21:30:46;;;;;;;9.18;4.10;;;;;;;;;;8335891;28;20045;-88
2023/10/15 21:34:51;;;;;;;7.60;3.55;;;;;;;;;;8335344;28;20084;-92
2023/10/15 21:38:54;;;;;;;10.25;4.28;;;;;;;;;;8335525;28;20049;-93
2023/10/15 21:42:57;;;;;;;9.00;3.67;;;;;;;;;;8335780;28;20041;-90
2023/10/15 21:47:00;;;;;;;9.40;4.50;;;;;;;;;;8336183;28;20094;-88
2023/10/15 21:51:05;;;;;;;8.15;3.38;;;;;;;;;;8335659;28;20428;-94
2023/10/15 21:55:10;;;;;;;7.78;3.38;;;;;;;;;;8337869;28;20564;-90
2023/10/15 21:59:13;;;;;;;7.10;3.88;;;;;;;;;;8337109;28;20051;-91
2023/10/15 22:03:16;;;;;;;8.27;4.07;;;;;;;;;;8335110;28;20053;-90
2023/10/15 22:07:21;;;;;;;8.80;4.68;;;;;;;;;;8335122;28;20119;-89
2023/10/15 22:11:24;;;;;;;8.40;4.00;;;;;;;;;;8335205;28;20046;-87
2023/10/15 22:15:27;;;;;;;8.35;3.58;;;;;;;;;;8334788;28;20136;-90
2023/10/15 22:19:33;;;;;;;10.57;4.00;;;;;;;;;;8334677;28;20042;-87
2023/10/15 22:23:47;;;;;;;10.80;5.22;;;;;;;;;;8334069;28;20061;-92
2023/10/15 22:27:50;;;;;;;12.20;4.10;;;;;;;;;;8333948;28;20384;-90
2023/10/15 22:31:53;;;;;;;8.20;3.55;;;;;;;;;;8334514;28;20428;-92
2023/10/15 22:35:56;;;;;;;8.18;3.85;;;;;;;;;;8334335;28;20120;-90
2023/10/15 22:40:00;;;;;;;7.88;3.78;;;;;;;;;;8333881;28;20060;-93
2023/10/15 22:44:03;;;;;;;8.75;4.15;;;;;;;;;;8337323;28;20053;-93
2023/10/15 22:48:08;;;;;;;7.63;3.63;;;;;;;;;;8334343;28;20049;-92
2023/10/15 22:52:13;;;;;;;10.13;3.42;;;;;;;;;;8334388;28;20072;-88
2023/10/15 22:56:18;;;;;;;11.10;3.70;;;;;;;;;;8333710;28;20084;-92
2023/10/15 23:00:23;;;;;;;9.13;4.10;;;;;;;;;;8333743;28;20049;-93
2023/10/15 23:04:26;;;;;;;10.45;4.00;;;;;;;;;;8334155;28;20052;-93
2023/10/15 23:08:29;;;;;;;8.65;3.88;;;;;;;;;;8333739;28;20141;-92
2023/10/15 23:12:35;;;;;;;10.77;4.40;;;;;;;;;;8333272;28;20078;-88
2023/10/15 23:16:39;;;;;;;10.50;4.00;;;;;;;;;;8333467;28;20075;-94
2023/10/15 23:20:42;;;;;;;9.20;3.63;;;;;;;;;;8333588;28;20493;-94
2023/10/15 23:24:45;;;;;;;10.27;4.13;;;;;;;;;;8333263;28;20127;-91
2023/10/15 23:28:49;;;;;;;9.68;3.88;;;;;;;;;;8332898;28;20397;-91
2023/10/15 23:32:52;;;;;;;9.57;3.90;;;;;;;;;;8332959;28;20045;-89
2023/10/15 23:36:56;;;;;;;9.10;3.90;;;;;;;;;;8332661;28;20076;-89
2023/10/15 23:40:59;;;;;;;16.23;4.43;;;;;;;;;;8334779;28;20053;-92
2023/10/15 23:45:08;;;;;;;8.00;3.72;;;;;;;;;;8332002;28;20045;-89
2023/10/15 23:49:12;;;;;;;12.05;4.90;;;;;;;;;;8321095;28;20046;-88
2023/10/15 23:57:37;;;;;;;9.98;4.88;;;;;;;;;;8312749;28;20168;-89
